Tiempo atmosférico en la estación meteorológica de Calanda, Teruel (459 m.)



Fecha
DESCASC
Temp. máxima en grados centígrados (hora)
DESCASC
Temp. mínima en grados centígrados (hora)
DESCASC
Temp. media en grados centígrados
DESCASC
Racha de viento máxima en m/sg (hora)
DESCASC
Velocidad máxima media en intervalos de 10 minutos(hora)
DESCASC
Precipitaciones diarias en mm
DESCASC
Precipitaciones de 00:00 a 06:00 en mm
DESCASC
Precipitaciones de 06:00 a 12:00 en mm
DESCASC
Precipitaciones de 12:00 a 18:00 en mm
DESCASC
Precipitaciones de 18:00 a 24:00 en mm
DESCASC
25-02-2021 15.4 (16:40) 2.7 (07:20) 9 8.33 (02:40) 4.44 (02:40) 0 0 0 0 0
24-02-2021 19.1 (17:20) 5.3 (07:30) 12.2 11.94 (01:00) 6.39 (01:00) 0 0 0 0 0
23-02-2021 15.3 (17:40) 2.5 (08:00) 8.9 9.72 (23:59) 5.56 (23:59) 0 0 0 0 0
22-02-2021 11.5 (00:40) 7.5 (13:00) 9.5 12.78 (04:00) 6.11 (04:00) 4.8 4.8 0 0 0
21-02-2021 14.9 (13:20) 7.6 (00:00) 11.2 11.94 (13:20) 7.78 (13:20) 0 0 0 0 0
20-02-2021 21.3 (14:00) 4.5 (00:00) 12.9 17.5 (23:00) 10.83 (23:00) 0 0 0 0 0
19-02-2021 20.8 (16:30) 6.7 (00:00) 13.7 10 (19:20) 6.67 (19:00) 0 0 0 0 0
18-02-2021 19 (17:50) 6.8 (00:00) 12.9 7.5 (06:20) 5.28 (06:20) 0 0 0 0 0
17-02-2021 18.6 (15:40) 7.9 (00:00) 13.3 6.11 (06:30) 4.72 (04:00) 0 0 0 0 0
16-02-2021 15.1 (17:30) 1.4 (00:00) 8.3 5 (15:10) 2.78 (09:20) 0 0 0 0 0
15-02-2021 14 (16:00) 2.5 (00:00) 8.3 10.83 (00:10) 5.83 (00:10) 0 0 0 0 0
14-02-2021 14.8 (13:20) 4.6 (00:00) 9.7 12.22 (23:30) 6.39 (17:20) 0 0 0 0 0
13-02-2021 14.6 (13:00) 7.7 (00:00) 11.2 13.89 (02:00) 9.17 (02:10) 0 0 0 0 0
12-02-2021 16.2 (14:10) 10.1 (00:00) 13.2 13.61 (12:10) 8.89 (12:10) 2 0 0 1.8 0.2
11-02-2021 19.2 (15:50) 5.2 (00:00) 12.2 9.44 (15:30) 5.83 (14:00) 0 0 0 0 0
10-02-2021 13.4 (15:40) 5.6 (00:00) 9.5 17.22 (10:40) 10 (10:50) 2.8 1 1.8 0 0
09-02-2021 16.7 (15:10) 6.3 (00:00) 11.5 15.56 (18:10) 8.89 (18:10) 0 0 0 0 0
08-02-2021 14 (13:50) 4.9 (00:00) 9.5 14.44 (16:00) 9.17 (15:50) 3 0 2.8 0.2 0
07-02-2021 11.6 (15:50) 4.2 (00:00) 7.9 11.11 (10:20) 6.94 (10:20) 0 0 0 0 0
06-02-2021 15.7 (12:50) 6.4 (00:00) 11 10 (17:10) 5.83 (19:00) 1.2 0 0 1 0.2
05-02-2021 16.7 (11:50) 6.9 (00:00) 11.8 14.72 (13:30) 9.17 (13:30) 0 0 0 0 0
04-02-2021 18 (15:50) 7.6 (00:00) 12.8 5.83 (16:20) 3.89 (16:10) 0 0 0 0 0
03-02-2021 17.4 (15:10) 6.6 (00:00) 12 7.22 (06:50) 5.83 (06:50) 0 0 0 0 0
02-02-2021 19.4 (15:40) 6.8 (08:40) 13.1 10.83 (02:20) 6.11 (02:20) 0 0 0 0 0
01-02-2021 18.1 (14:40) 11.7 (00:00) 14.9 21.67 (02:40) 13.06 (02:40) 0 0 0 0 0
31-01-2021 16.6 (16:30) 9.4 (00:00) 13 17.78 (01:20) 10.28 (03:50) 0 0 0 0 0
30-01-2021 15.2 (13:20) 8.5 (00:00) 11.8 17.78 (14:20) 10.83 (14:30) 0 0 0 0 0
29-01-2021 19.4 (15:30) 9.4 (00:00) 14.4 11.94 (13:50) 7.78 (14:40) 0 0 0 0 0
28-01-2021 22.5 (15:20) 8.5 (00:00) 15.5 9.72 (14:40) 5.83 (14:40) 0 0 0 0 0

Gráficas

Temp. máximas Temp. mínimas Temp. medias Precipitaciones Rachas de viento máximas Velocidades máximas media en intervalos de 10 minutos

Datos horarios

Fecha y hora oficial Temperatura (ºC) Velocidad del viento (km/h) Dirección del viento Racha (km/h) Dirección de racha Precipitación (mm) Presión (hPa) Tendencia (hPa) Humedad (%)
2021-02-26 23:00:00 8.8 8 Sudoeste 14 Sudoeste 0 974.2 0.1 88
2021-02-26 22:00:00 9.3 9 Sudoeste 14 Sudoeste 0 974.1 0.1 87
2021-02-26 21:00:00 7.9 5 Sudoeste 8 Sudoeste 0 974.1 0.1 93
2021-02-26 20:00:00 8.6 4 Oeste 6 Oeste 0 974.1 0.2 91
2021-02-26 19:00:00 11 0 Calma 6 Norte 0 974 -0.1 84
2021-02-26 18:00:00 12.5 4 Nordeste 12 Nordeste 0 974 -0.6 78
2021-02-26 17:00:00 13 7 Norte 14 Norte 0 973.9 -1.3 74
2021-02-26 16:00:00 13.7 8 Norte 17 Norte 0 974.1 -1.9 71
2021-02-26 15:00:00 13.9 6 Noroeste 17 Noroeste 0 974.6 -1.7 67
2021-02-26 14:00:00 12.9 10 Norte 17 Norte 0 975.2 -1 70
2021-02-26 13:00:00 12.3 12 Norte 18 Noroeste 0 976 -0.3 74
2021-02-26 12:00:00 13.1 4 Norte 11 Norte 0 976.3 -- 69
2021-02-26 11:00:00 12.1 3 Sur 8 Sudoeste 0 976.2 -- 71
2021-02-26 10:00:00 10.1 5 Sur 12 Sudoeste 0 976.3 -- 79
2021-02-26 09:00:00 8.2 6 Sudoeste 12 Sur 0 976.1 -- 85
2021-02-26 08:00:00 7.3 0 Calma 5 Sudoeste 0 975.9 -- 92
2021-02-26 07:00:00 7.5 0 Calma 8 Sudoeste 0 975.8 -- 91
2021-02-26 06:00:00 8.2 5 Sudoeste 13 Sudoeste 0 975.7 -- 89
2021-02-26 05:00:00 7.9 10 Sudoeste 15 Sudoeste 0 975.5 -- 89
2021-02-26 04:00:00 7.4 13 Sudoeste 18 Sudoeste 0 975.5 -- 90
2021-02-26 03:00:00 7.2 11 Sudoeste 18 Sudoeste 0 975.5 -- 90
2021-02-26 02:00:00 7.6 12 Sudoeste 16 Sudoeste 0 975.8 -- 90
2021-02-26 01:00:00 7.8 10 Sudoeste 14 Sudoeste 0 975.7 -- 90
2021-02-26 00:00:00 8 10 Sudoeste 13 Sudoeste 0 975.8 -- 89
2021-02-25 23:00:00 8.1 5 Sudoeste 9 Oeste 0 975.7 -- 91
2021-02-25 22:00:00 8.8 3 Sur 7 Oeste 0 975.4 -- 89
2021-02-25 21:00:00 9.1 2 Oeste 9 Oeste 0 975.2 -- 87
2021-02-25 20:00:00 10.3 3 Oeste 9 Oeste 0 974.7 -- 83
2021-02-25 19:00:00 11.9 6 Oeste 15 Noroeste 0 974.2 -- 76
2021-02-25 18:00:00 13.8 11 Noroeste 18 Norte 0 973.7 -- 70
2021-02-25 17:00:00 15.1 12 Norte 20 Nordeste 0 973.3 -- 58
2021-02-25 16:00:00 14.7 9 Norte 15 Nordeste 0 973.5 -- 51
2021-02-25 15:00:00 14.2 9 Norte 20 Norte 0 973.9 -- 57
2021-02-25 14:00:00 13 6 Norte 16 Norte 0 974.5 -- 65
2021-02-25 13:00:00 11.7 6 Nordeste 15 Norte 0 975.3 -- 69
2021-02-25 12:00:00 10.1 8 Norte 13 Nordeste 0 975.9 -- 76
2021-02-25 11:00:00 9.3 6 Norte 10 Norte 0 975.7 -- 77
2021-02-25 10:00:00 7.9 3 Este 8 Noroeste 0 975.7 -- 80
2021-02-25 09:00:00 4.8 3 Noroeste 7 Noroeste 0 975.4 -- 88
2021-02-25 08:00:00 3 4 Norte 7 Noroeste 0 975.1 -- 89
2021-02-25 07:00:00 3 0 Calma 8 Oeste 0 974.9 -- 88
2021-02-25 06:00:00 4.2 6 Oeste 10 Noroeste 0 974.7 -- 86
2021-02-25 05:00:00 6.6 0 Calma 19 Sudeste 0 974.5 -- 77
2021-02-25 04:00:00 9.2 9 Sur 26 Sur 0 974.5 -- 67
2021-02-25 03:00:00 9.6 14 Sur 30 Sur 0 974.5 -- 68
2021-02-25 02:00:00 9.8 13 Sur 30 Sur 0 975 -- 68
2021-02-25 01:00:00 10.1 13 Sur 27 Sur 0 975.3 -- 67
2021-02-25 00:00:00 10.6 14 Sur 31 Sur 0 975.3 -- 68
2021-02-24 23:00:00 11 13 Sur 26 Sudeste 0 975.7 -- 68
2021-02-24 22:00:00 11.4 8 Sur 18 Sur 0 975.6 -- 67
2021-02-24 21:00:00 12 8 Sudeste 19 Este 0 975.1 -- 65
2021-02-24 20:00:00 12.7 6 Sudeste 31 Sudeste 0 975 -- 62
2021-02-24 19:00:00 14.3 14 Sudeste 34 Sudeste 0 974.8 -- 55
2021-02-24 18:00:00 16.5 17 Sur 29 Sudeste 0 974.6 -- 49
2021-02-24 17:00:00 18.5 6 Nordeste 17 Norte 0 974.7 -- 51
2021-02-24 16:00:00 18 7 Nordeste 18 Norte 0 975.5 -- 51
2021-02-24 15:00:00 17.9 5 Norte 19 Norte 0 976.3 -- 58
2021-02-24 14:00:00 16.3 9 Norte 19 Norte 0 977.4 -- 65
2021-02-24 13:00:00 15.5 9 Norte 17 Nordeste 0 978.1 -- 65
2021-02-24 12:00:00 14.2 9 Norte 16 Nordeste 0 978.7 -- 67
2021-02-24 11:00:00 14.1 4 Este 16 Este 0 979 -- 64
2021-02-24 10:00:00 11.6 10 Este 17 Este 0 979.1 -- 71
2021-02-24 09:00:00 9 5 Sur 10 Sudoeste 0 979.5 -- 81
2021-02-24 08:00:00 7.4 9 Sudoeste 12 Sudoeste 0 979.1 -- 86
2021-02-24 07:00:00 6 3 Sur 8 Sur 0 979.1 -0.3 90
2021-02-24 06:00:00 7.6 3 Nordeste 10 Este 0 979 -0.5 87
2021-02-24 05:00:00 9.6 6 Sudeste 22 Sudeste 0 979.1 -- 80
2021-02-24 04:00:00 10.7 8 Sudeste 43 Sur 0 979.4 -- 77
2021-02-24 03:00:00 11.1 18 Sur 40 Sur 0 979.5 -- 76
2021-02-24 02:00:00 11.1 19 Sur 39 Sur 0 979.8 -0.6 75
2021-02-24 01:00:00 10.8 23 Sur 43 Sur 0 979.8 -- 76
2021-02-24 00:00:00 11.3 20 Sur 35 Sur 0 980.2 -- 73
2021-02-23 23:00:00 11.1 11 Sur 23 Sur 0 980.4 -- 73
2021-02-23 22:00:00 10.5 5 Sudeste 13 Sudeste 0 980.3 -- 76
2021-02-23 21:00:00 8.5 3 Oeste 8 Oeste 0 979.8 1.5 86
2021-02-23 20:00:00 10.7 0 Calma 9 Norte 0 979.4 -- 72
2021-02-23 19:00:00 12.6 4 Nordeste 14 Este 0 978.8 -- 64
2021-02-23 18:00:00 14.7 7 Nordeste 18 Norte 0 978.3 -- 56
2021-02-23 17:00:00 15 9 Nordeste 19 Norte 0 978.1 -- 55
2021-02-23 16:00:00 14.3 13 Norte 21 Norte 0 978.2 -- 58
2021-02-23 15:00:00 14 8 Norte 19 Nordeste 0 978.5 -- 56
2021-02-23 14:00:00 13.1 9 Nordeste 18 Nordeste 0 978.6 -- 57
2021-02-23 13:00:00 12.8 6 Norte 13 Nordeste 0 979.3 -- 57
2021-02-23 12:00:00 12.1 5 Este 13 Sudeste 0 979.5 -- 61
2021-02-23 11:00:00 10.5 6 Sudeste 12 Sur 0 979.4 -- 65
2021-02-23 10:00:00 8.2 8 Sudeste 18 Sudoeste 0 978.6 -- 77
2021-02-23 09:00:00 6 8 Sudoeste 11 Sudoeste 0 978.2 -- 88
2021-02-23 08:00:00 2.5 0 Calma 6 Oeste 0 977.2 -- 95
2021-02-23 07:00:00 3.3 5 Noroeste 8 Sudoeste 0 976.4 -- 93
2021-02-23 06:00:00 3.8 6 Oeste 8 Oeste 0 975.8 -- 94
2021-02-23 05:00:00 5.1 2 Sudeste 8 Sudoeste 0 974.9 -- 91
2021-02-23 04:00:00 6.7 5 Noroeste 8 Oeste 0 974.4 -- 88
2021-02-23 03:00:00 7.3 4 Oeste 8 Oeste 0 974 -- 84
2021-02-23 02:00:00 7.7 2 Oeste 6 Oeste 0 973.5 -- 79
2021-02-23 01:00:00 7.8 4 Sudoeste 7 Sudoeste 0 972.9 -- 81
2021-02-23 00:00:00 7.9 0 Calma 9 Sudoeste 0 972.4 -- 80
2021-02-22 23:00:00 7.7 2 Este 5 Sudoeste 0 972 -- 85
2021-02-22 22:00:00 7.7 3 Sudoeste 4 Norte 0 971.2 -- 85
2021-02-22 21:00:00 7.7 4 Norte 10 Noroeste 0 970.4 -- 85
2021-02-22 20:00:00 7.8 5 Noroeste 10 Noroeste 0 969.3 -- 83
2021-02-22 19:00:00 7.9 8 Noroeste 14 Noroeste 0 968.1 -- 82
2021-02-22 18:00:00 8 7 Noroeste 17 Norte 0 966.6 -- 84
2021-02-22 17:00:00 8.3 13 Noroeste 18 Noroeste 0 965.8 -- 79
2021-02-22 16:00:00 8.4 12 Noroeste 21 Noroeste 0 964.8 -- 78
2021-02-22 15:00:00 8.3 13 Noroeste 22 Noroeste 0 964.3 -- 80
2021-02-22 14:00:00 8.3 11 Noroeste 24 Noroeste 0 963.8 -- 78
2021-02-22 13:00:00 7.5 18 Noroeste 25 Noroeste 0 963.4 -- 83
2021-02-22 12:00:00 8.1 12 Norte 19 Norte 0 962.9 -- 82
2021-02-22 11:00:00 8.9 9 Noroeste 25 Oeste 0 961.9 -- 75
2021-02-22 10:00:00 8.8 4 Noroeste 26 Oeste 0 960.8 -- 79
2021-02-22 09:00:00 8.9 14 Oeste 23 Oeste 0 959 -- 76
2021-02-22 08:00:00 8.3 3 Noroeste 6 Este 0 958.2 -- 92
2021-02-22 07:00:00 8.2 5 Sudoeste 10 Norte 0 957 3.4 89
2021-02-22 06:00:00 7.9 5 Sudoeste 14 Sudoeste 0 955.7 -- 90
2021-02-22 05:00:00 8 0 Calma 26 Oeste 0.2 954.3 -- 91
2021-02-22 04:00:00 8.8 22 Sudoeste 46 Oeste 4.6 953.6 -- 90
2021-02-22 03:00:00 10.7 3 Norte 12 Este 0 953.6 -- 91
2021-02-22 02:00:00 10.9 6 Nordeste 18 Nordeste 0 953.8 -- 88
2021-02-22 01:00:00 11.3 10 Nordeste 24 Nordeste 0 953.4 -- 84
2021-02-22 00:00:00 10.6 8 Oeste 18 Este 0 954 -- 85
2021-02-21 23:00:00 11.6 9 Este 18 Este 0 953.8 -- 81
2021-02-21 22:00:00 11.6 6 Este 18 Nordeste 0 954.9 0.5 82
2021-02-21 21:00:00 11.8 9 Este 27 Nordeste 0 955 -- 81
2021-02-21 20:00:00 11.7 11 Este 24 Este 0 954.5 -- 82
2021-02-21 19:00:00 11.4 14 Este 28 Este 0 954.4 -- 83
2021-02-21 18:00:00 11.5 15 Este 29 Este 0 953.9 -- 81
2021-02-21 17:00:00 12.3 18 Este 34 Este 0 954.2 -- 74
2021-02-21 16:00:00 12.6 17 Este 32 Este 0 954.4 -- 72
2021-02-21 15:00:00 12.2 15 Este 33 Este 0 954.9 -- 74
2021-02-21 14:00:00 13.4 18 Este 43 Este 0 955.3 -- 65
2021-02-21 13:00:00 14.4 28 Este 42 Este 0 956.1 -- 57
2021-02-21 12:00:00 13.7 10 Sudeste 31 Este 0 956.9 -- 55
2021-02-21 11:00:00 12.9 10 Sudeste 22 Este 0 957.3 -- 56
2021-02-21 10:00:00 10.2 6 Norte 14 Este 0 957.3 -- 71
2021-02-21 09:00:00 10.1 12 Sudeste 29 Sur 0 957.6 -- 68
2021-02-21 08:00:00 7.7 6 Este 9 Nordeste 0 957.9 -- 75
2021-02-21 07:00:00 7.8 6 Este 14 Este 0 958.3 -- 72
2021-02-21 06:00:00 8.3 10 Este 15 Este 0 958.8 -- 71
2021-02-21 05:00:00 9.5 9 Sudoeste 27 Sudeste 0 959.4 -- 63
2021-02-21 04:00:00 9.6 7 Sudeste 19 Sudeste 0 959.8 -- 61
2021-02-21 03:00:00 9.9 10 Sudeste 19 Sudeste 0 960.4 -- 60
2021-02-21 02:00:00 9.3 3 Sur 28 Sudeste 0 960.5 -- 62
2021-02-21 01:00:00 9.9 14 Sudeste 27 Sudeste 0 960.6 -- 58
2021-02-21 00:00:00 10.6 19 Sudeste 60 Sudeste 0 960.8 -- 55
2021-02-20 23:00:00 11.4 39 Sudeste 63 Sudeste 0 960.2 -- 52
2021-02-20 22:00:00 11.8 28 Sudeste 52 Sur 0 960.5 -- 48
2021-02-20 21:00:00 12.5 20 Sudeste 48 Sudeste 0 960.6 -- 46
2021-02-20 20:00:00 12.4 18 Sur 44 Sudeste 0 960.6 -- 50
2021-02-20 19:00:00 13 24 Sudeste 53 Sudeste 0 960.2 -- 49
2021-02-20 18:00:00 15.2 24 Sudeste 51 Sudeste 0 959.8 -- 40
2021-02-20 17:00:00 17.9 28 Sudeste 48 Sudeste 0 959.5 -- 28
2021-02-20 16:00:00 19.7 27 Sudeste 49 Sudeste 0 959.5 -- 21
2021-02-20 15:00:00 20.8 23 Sudeste 49 Sudeste 0 960 -- 17
2021-02-20 14:00:00 21.3 21 Sur 41 Sudeste 0 960.9 -- 19
2021-02-20 13:00:00 15.1 12 Norte 19 Norte 0 962 -- 52
2021-02-20 12:00:00 13.1 10 Noroeste 26 Sudeste 0 962.9 -- 56
2021-02-20 11:00:00 17.6 9 Sudeste 22 Sur 0 962.9 -- 24
2021-02-20 10:00:00 15.5 4 Norte 9 Sudeste 0 963 -- 29
2021-02-20 09:00:00 12.3 4 Noroeste 13 Norte 0 962.9 0.2 44
2021-02-20 08:00:00 6.8 4 Noroeste 12 Oeste 0 962.4 -- 58
2021-02-20 07:00:00 6.4 5 Norte 9 Norte 0 962.5 -- 63
2021-02-20 06:00:00 4.8 3 Noroeste 9 Este 0 962.7 -- 69
2021-02-20 05:00:00 8.5 6 Sudoeste 10 Oeste 0 962.7 -- 54
2021-02-20 04:00:00 8.8 2 Oeste 10 Oeste 0 962.9 -0.5 54
2021-02-20 03:00:00 9.9 6 Noroeste 9 Noroeste 0 963 -- 50
2021-02-20 02:00:00 10.1 6 Oeste 16 Sudeste 0 963.4 -- 49
2021-02-20 01:00:00 14.2 8 Sur 30 Sudeste 0 963.4 -- 35
2021-02-20 00:00:00 14.5 14 Sur 29 Sur 0 963.8 -- 34
2021-02-19 23:00:00 13.3 7 Sur 18 Sur 0 964 0.7 40
2021-02-19 22:00:00 14.2 12 Sur 24 Sur 0 964 -- 40
2021-02-19 21:00:00 15.1 11 Sur 35 Sur 0 963.6 -- 38
2021-02-19 20:00:00 16 17 Sur 36 Sur 0 963.3 -- 34
2021-02-19 19:00:00 17.2 24 Sudeste 36 Sudeste 0 962.6 -- 32
2021-02-19 18:00:00 19.1 11 Sudeste 24 Sur 0 962.3 -- 29
2021-02-19 17:00:00 20.3 12 Este 21 Nordeste 0 962.5 -1.3 27
2021-02-19 16:00:00 20.1 11 Nordeste 20 Norte 0 962.7 -- 28
2021-02-19 15:00:00 19.1 13 Nordeste 22 Nordeste 0 963.2 -- 35
2021-02-19 14:00:00 19 12 Norte 20 Nordeste 0 963.8 -- 31
2021-02-19 13:00:00 19.6 7 Este 14 Este 0 964.9 -- 26
2021-02-19 12:00:00 17.7 8 Sudeste 15 Sudoeste 0 965.7 -- 28
2021-02-19 11:00:00 15.5 6 Sur 23 Sur 0 966 -- 30
2021-02-19 10:00:00 11.8 16 Sudoeste 24 Sudoeste 0 966.1 -- 35
2021-02-19 09:00:00 9.6 12 Sur 23 Sur 0 966 -- 42
2021-02-19 08:00:00 8.6 10 Sur 18 Sur 0 965.6 -- 46
2021-02-19 07:00:00 8.3 13 Sudoeste 19 Sudoeste 0 965.6 -- 47
2021-02-19 06:00:00 7.9 10 Sudoeste 17 Sudoeste 0 965.5 -- 49
2021-02-19 05:00:00 7.1 12 Sudoeste 18 Sudoeste 0 965.4 -- 53
2021-02-19 04:00:00 7.5 9 Oeste 15 Sudoeste 0 965.3 -- 52
2021-02-19 03:00:00 8 11 Sudoeste 14 Sudoeste 0 965.2 -- 52
2021-02-19 02:00:00 9.7 3 Noroeste 17 Sudoeste 0 965.1 -- 44
2021-02-19 01:00:00 10.8 9 Sudoeste 18 Sur 0 965 -- 45
2021-02-19 00:00:00 10.6 14 Sudoeste 20 Sudoeste 0 965.2 -- 46
2021-02-18 23:00:00 10.9 11 Sudoeste 20 Sudoeste 0 965.3 -- 40
2021-02-18 22:00:00 12.9 16 Sudoeste 22 Sudoeste 0 964.7 -- 34
2021-02-18 21:00:00 12.6 15 Sudoeste 21 Sudoeste 0 964 -- 43
2021-02-18 20:00:00 12 4 Este 12 Oeste 0 963.5 -- 59
2021-02-18 19:00:00 13.5 6 Sudoeste 12 Oeste 0 962.9 -- 60
2021-02-18 18:00:00 17.7 3 Nordeste 8 Este 0 962.4 -- 49
2021-02-18 17:00:00 17.1 3 Norte 13 Norte 0 962.4 -- 46
2021-02-18 16:00:00 18 5 Norte 15 Norte 0 962.4 -- 32
2021-02-18 15:00:00 17.7 8 Norte 16 Norte 0 962.4 -- 32
2021-02-18 14:00:00 17.2 5 Nordeste 13 Norte 0 962.9 -- 32
2021-02-18 13:00:00 17 4 Nordeste 11 Nordeste 0 963.6 -- 33
2021-02-18 12:00:00 14.7 8 Norte 13 Norte 0 964.1 -- 40
2021-02-18 11:00:00 13 9 Norte 14 Norte 0 964.3 -- 44
2021-02-18 10:00:00 12.7 3 Norte 9 Este 0 963.8 -- 36
2021-02-18 09:00:00 9.5 4 Nordeste 9 Nordeste 0 963.8 -- 47
2021-02-18 08:00:00 7.4 0 Calma 21 Sudoeste 0 963.5 -- 49
2021-02-18 07:00:00 10.2 19 Sudoeste 27 Sudoeste 0 963.2 -- 38
2021-02-18 06:00:00 10.7 11 Sudoeste 20 Sudoeste 0 963.4 -- 36
2021-02-18 05:00:00 9.7 7 Sudoeste 21 Sudoeste 0 963.8 -- 43
2021-02-18 04:00:00 9.9 14 Sudoeste 23 Sudoeste 0 964 -- 45
2021-02-18 03:00:00 11.3 6 Sudoeste 21 Sudoeste 0 964.4 -- 40
2021-02-18 02:00:00 10.3 10 Oeste 23 Sudoeste 0 964.7 -- 51
2021-02-18 01:00:00 11.9 14 Sudoeste 22 Sudoeste 0 965 -- 48
2021-02-18 00:00:00 11.1 9 Sudoeste 20 Sudoeste 0 965.3 -- 57
2021-02-17 23:00:00 12.7 11 Sur 22 Sur 0 965.5 -- 56
2021-02-17 22:00:00 11.7 0 Calma 15 Sudoeste 0 965.7 -- 62
2021-02-17 21:00:00 11.2 6 Oeste 12 Sudoeste 0 965.8 -- 68
2021-02-17 20:00:00 11.3 4 Oeste 8 Oeste 0 966 -- 67
2021-02-17 19:00:00 12.8 3 Oeste 10 Norte 0 966 -- 61
2021-02-17 18:00:00 15.9 7 Norte 15 Nordeste 0 965.9 -- 49
2021-02-17 17:00:00 17.3 9 Norte 19 Norte 0 966 -- 44
2021-02-17 16:00:00 17.6 9 Nordeste 18 Norte 0 966.4 -- 41
2021-02-17 15:00:00 17.6 10 Norte 18 Nordeste 0 967 -- 36
2021-02-17 14:00:00 17.4 9 Norte 19 Norte 0 967.8 -- 37
2021-02-17 13:00:00 16.9 4 Nordeste 11 Norte 0 968.7 -- 35
2021-02-17 12:00:00 16.4 5 Este 9 Este 0 969.3 -- 38
2021-02-17 11:00:00 13.7 6 Sudoeste 10 Sudoeste 0 969.7 -- 42
2021-02-17 10:00:00 11.4 2 Noroeste 14 Sudoeste 0 969.6 -- 47
2021-02-17 09:00:00 9.9 5 Sudoeste 11 Sudoeste 0 969.3 -- 53
2021-02-17 08:00:00 9.6 9 Sudoeste 15 Sudoeste 0 969.1 -- 56
2021-02-17 07:00:00 9.3 6 Sudoeste 22 Sudoeste 0 969.2 -- 56
2021-02-17 06:00:00 9.9 13 Sudoeste 19 Sudoeste 0 969.3 -- 54
2021-02-17 05:00:00 10.3 12 Sudoeste 21 Sudoeste 0 969.3 -- 53
2021-02-17 04:00:00 11 17 Sudoeste 21 Sudoeste 0 969.5 -- 51
2021-02-17 03:00:00 8.1 4 Sur 13 Oeste 0 969.9 -- 72
2021-02-17 02:00:00 12.1 11 Sudoeste 16 Oeste 0 969.8 -- 48
2021-02-17 01:00:00 10.9 10 Sudoeste 17 Sudoeste 0 969.9 -- 53
2021-02-17 00:00:00 8.4 5 Sudoeste 8 Sudoeste 0 970 -- 78
2021-02-16 23:00:00 8.9 4 Noroeste 13 Sudoeste 0 969.9 -- 81
2021-02-16 22:00:00 8.7 4 Sudoeste 12 Oeste 0 970 -- 92
2021-02-16 21:00:00 7.9 6 Oeste 9 Oeste 0 969.5 -- 91
2021-02-16 20:00:00 8.4 6 Noroeste 9 Noroeste 0 969.1 -- 89
2021-02-16 19:00:00 10.8 2 Norte 9 Sur 0 969 -- 81
2021-02-16 18:00:00 14.3 3 Nordeste 10 Norte 0 968.9 -- 62
2021-02-16 17:00:00 14.8 7 Norte 13 Norte 0 969.1 -- 64
2021-02-16 16:00:00 14.8 8 Norte 18 Norte 0 969.6 -- 62
2021-02-16 15:00:00 14.7 6 Nordeste 15 Nordeste 0 970.1 -- 61
2021-02-16 14:00:00 13.7 5 Nordeste 12 Nordeste 0 971 -- 61
2021-02-16 13:00:00 11.8 5 Nordeste 12 Nordeste 0 972.1 -- 70
2021-02-16 12:00:00 9.6 5 Norte 12 Nordeste 0 973.1 -- 77
2021-02-16 11:00:00 9.3 4 Nordeste 9 Nordeste 0 973.2 -- 70
2021-02-16 10:00:00 7.5 4 Sur 15 Sudoeste 0 972.6 -- 83
2021-02-16 09:00:00 4.5 6 Sur 9 Sur 0 972.6 -- 100
2021-02-16 08:00:00 1.8 3 Sudoeste 6 Sudoeste 0 972.7 -- 100
2021-02-16 07:00:00 1.9 5 Oeste 8 Oeste 0 973 -- 100
2021-02-16 06:00:00 1.9 2 Oeste 5 Oeste 0 973.5 -- 99
2021-02-16 05:00:00 3.1 3 Oeste 4 Oeste 0 974 -- 99
2021-02-16 04:00:00 3.9 3 Sudoeste 6 Sudoeste 0 974.6 -- 99
2021-02-16 03:00:00 4.2 2 Norte 6 Nordeste 0 975 -- 97
2021-02-16 02:00:00 3.7 2 Sudeste 5 Sudoeste 0 975.3 -- 96
2021-02-16 01:00:00 4.8 3 Sudoeste 6 Noroeste 0 976.1 -- 95
2021-02-16 00:00:00 6.7 5 Noroeste 15 Norte 0 976.2 -- 93
2021-02-15 23:00:00 7.6 3 Norte 13 Sur 0 976.3 -- 87
2021-02-15 22:00:00 9.7 6 Sudeste 21 Sur 0 976.2 -- 80
2021-02-15 21:00:00 10.1 8 Sur 27 Sur 0 976.1 -- 79
2021-02-15 20:00:00 10.4 15 Sur 34 Sur 0 975.9 -- 78
2021-02-15 19:00:00 11.1 17 Sur 31 Sur 0 975.9 -- 74
2021-02-15 18:00:00 13.2 5 Sudeste 16 Sudeste 0 975.8 -- 64
2021-02-15 17:00:00 13.7 5 Nordeste 17 Nordeste 0 976.1 -- 68
2021-02-15 16:00:00 13.7 6 Nordeste 16 Norte 0 976.6 -- 65
2021-02-15 15:00:00 12.8 6 Norte 17 Nordeste 0 977 -- 72
2021-02-15 14:00:00 11.2 6 Norte 14 Norte 0 977.9 -- 75
2021-02-15 13:00:00 8.6 4 Nordeste 10 Noroeste 0 978.5 -- 82
2021-02-15 12:00:00 6.2 3 Nordeste 9 Noroeste 0 979.2 -- 93
2021-02-15 11:00:00 5.4 4 Norte 8 Noroeste 0 979.3 -- 96
2021-02-15 10:00:00 4.7 4 Norte 7 Norte 0 978.9 -- 94
2021-02-15 09:00:00 4.4 2 Nordeste 5 Nordeste 0 978.5 -- 96
2021-02-15 08:00:00 2.9 3 Sudoeste 6 Noroeste 0 978 -- 95
2021-02-15 07:00:00 3 0 Calma 8 Oeste 0 977.8 -- 95
2021-02-15 06:00:00 3.3 2 Noroeste 4 Norte 0 977.6 -- 94
2021-02-15 05:00:00 4.3 0 Calma 11 Norte 0 977.8 -- 91
2021-02-15 04:00:00 5.4 3 Norte 12 Noroeste 0 977.8 -- 87
2021-02-15 03:00:00 8.3 5 Norte 28 Sudeste 0 978.1 -- 72
2021-02-15 02:00:00 8.5 14 Sur 32 Sur 0 978 -- 71
2021-02-15 01:00:00 8.2 18 Sur 39 Sur 0 977.8 -- 71
2021-02-15 00:00:00 8.4 23 Sur 44 Sur 0 977.5 -- 70
2021-02-14 23:00:00 8.5 19 Sur 37 Sur 0 977.6 -- 69
2021-02-14 22:00:00 8.5 5 Sudeste 26 Sudeste 0 977.8 -- 67
2021-02-14 21:00:00 8.8 12 Sudeste 40 Sudeste 0 977.5 -- 66
2021-02-14 20:00:00 9.4 17 Sudeste 39 Sudeste 0 977.1 -- 64
2021-02-14 19:00:00 10 19 Sudeste 41 Sudeste 0 976.7 0.9 65
2021-02-14 18:00:00 11.1 19 Sudeste 40 Sudeste 0 976 0.5 60
2021-02-14 17:00:00 13 14 Sudeste 31 Sudeste 0 975.9 -- 52
2021-02-14 16:00:00 13.6 17 Sudeste 35 Sudeste 0 975.8 -- 49
2021-02-14 15:00:00 14.3 17 Sudeste 31 Sudeste 0 975.5 -- 48
2021-02-14 14:00:00 14.3 15 Sudeste 28 Sudeste 0 975.8 -- 48
2021-02-14 13:00:00 13.9 6 Este 13 Nordeste 0 975.9 -- 50
2021-02-14 12:00:00 13.3 6 Este 18 Sur 0 976.2 -- 54
2021-02-14 11:00:00 12.4 10 Sur 19 Sur 0 976.3 -- 52
2021-02-14 10:00:00 9.9 8 Sudoeste 15 Sudoeste 0 975.9 -- 65
2021-02-14 09:00:00 7.2 6 Sudoeste 10 Sur 0 975.2 -- 77
2021-02-14 08:00:00 5.9 7 Sudoeste 10 Sudoeste 0 974.2 -- 79
2021-02-14 07:00:00 6.1 3 Nordeste 18 Sudoeste 0 973.9 -- 77
2021-02-14 06:00:00 7.3 14 Sudoeste 22 Sudoeste 0 973.4 -- 69
2021-02-14 05:00:00 6.7 13 Sudoeste 18 Sudoeste 0 972.8 -- 71
2021-02-14 04:00:00 6.9 12 Sudoeste 16 Sudoeste 0 972.7 -- 68
2021-02-14 03:00:00 7.5 10 Sudoeste 16 Sudoeste 0 972.8 -- 64
2021-02-14 02:00:00 8.8 10 Sudoeste 16 Sudoeste 0 972.7 -- 58
2021-02-14 01:00:00 8.2 10 Sudoeste 19 Sudoeste 0 972.4 -- 61
2021-02-14 00:00:00 8 12 Sudoeste 17 Sudoeste 0 972.3 -- 68
2021-02-13 23:00:00 8.6 12 Sudoeste 16 Sudoeste 0 972.3 -- 69
2021-02-13 22:00:00 9.1 10 Sudoeste 16 Oeste 0 972 -- 65
2021-02-13 21:00:00 10.3 8 Sudoeste 13 Oeste 0 971.6 -- 67
2021-02-13 20:00:00 9.9 4 Sur 9 Oeste 0 971.2 -- 70
2021-02-13 19:00:00 10.8 2 Noroeste 14 Oeste 0 970.3 -- 65
2021-02-13 18:00:00 12.4 8 Oeste 18 Oeste 0 969.7 -- 50
2021-02-13 17:00:00 13.2 9 Oeste 17 Noroeste 0 969.6 -- 52
2021-02-13 16:00:00 13.7 10 Noroeste 24 Noroeste 0 969.6 -- 48
2021-02-13 15:00:00 14.2 16 Noroeste 32 Oeste 0 969.2 -- 44
2021-02-13 14:00:00 14.1 23 Oeste 41 Noroeste 0 969.3 -- 46
2021-02-13 13:00:00 14.3 25 Oeste 48 Oeste 0 969 -- 47
2021-02-13 08:00:00 8.1 14 Sudoeste 24 Sudoeste 0 969.2 1.2 66
2021-02-13 07:00:00 8.7 13 Sudoeste 21 Sudoeste 0 968.9 2 65
2021-02-13 06:00:00 8.6 12 Sudoeste 24 Sudoeste 0 968.6 1.8 68
2021-02-13 05:00:00 8.9 12 Oeste 45 Oeste 0 968 1.7 70
2021-02-13 04:00:00 9.5 28 Noroeste 49 Oeste 0 966.9 0.7 69
2021-02-13 03:00:00 9.8 24 Oeste 50 Noroeste 0 966.8 -0.2 68
2021-02-13 02:00:00 10.3 30 Oeste 50 Noroeste 0 966.3 -0.2 66
2021-02-13 01:00:00 10.1 23 Oeste 39 Oeste 0 966.2 0.1 68
2021-02-13 00:00:00 10.5 21 Oeste 43 Oeste 0 967 1 66
2021-02-12 23:00:00 11 30 Oeste 49 Noroeste 0.2 966.5 1.3 65
2021-02-12 22:00:00 11.2 26 Oeste 45 Oeste 0 966.1 2.1 65
2021-02-12 21:00:00 11.3 24 Noroeste 46 Noroeste 0 966 2.8 69
2021-02-12 20:00:00 11.7 26 Oeste 39 Oeste 0 965.2 2.1 71
2021-02-12 19:00:00 11.8 21 Oeste 36 Oeste 0 964 1 75
2021-02-12 18:00:00 11.2 18 Oeste 41 Oeste 0 963.2 0.7 79
2021-02-12 17:00:00 11.2 22 Oeste 41 Oeste 0.6 963.1 1 78
2021-02-12 16:00:00 11.1 23 Noroeste 40 Noroeste 0 963 0.7 86
2021-02-12 15:00:00 11.2 22 Norte 47 Oeste 1.2 962.5 0.1 89
2021-02-12 14:00:00 15.3 23 Oeste 46 Oeste 0 962.1 -0.1 50
2021-02-12 13:00:00 14.3 18 Noroeste 49 Oeste 0 962.3 0.9 50
2021-02-12 12:00:00 14.8 31 Oeste 48 Oeste 0 962.4 0.7 48
2021-02-12 11:00:00 12.9 25 Oeste 42 Oeste 0 962.2 0.7 62
2021-02-12 10:00:00 12.9 9 Oeste 16 Sudoeste 0 961.4 -0.1 66
2021-02-12 09:00:00 11.6 4 Sudoeste 13 Sudoeste 0 961.7 -- 72
2021-02-12 08:00:00 11.6 3 Sur 15 Sudoeste 0 961.5 -- 70
2021-02-12 07:00:00 12.3 9 Sudoeste 16 Sur 0 961.5 -- 65
2021-02-12 06:00:00 12.8 6 Sur 17 Sudoeste 0 961.6 -- 62
2021-02-12 05:00:00 12.5 12 Sudoeste 19 Sudoeste 0 962.1 -- 63
2021-02-12 04:00:00 11.9 7 Sur 17 Sudoeste 0 962.1 -- 64
2021-02-12 03:00:00 13.2 11 Sudoeste 19 Sudoeste 0 962.6 -- 58
2021-02-12 02:00:00 12.6 8 Sudoeste 13 Sudoeste 0 963.4 -- 60
2021-02-12 01:00:00 11.9 5 Sudoeste 11 Sudoeste 0 963.6 -- 63
2021-02-12 00:00:00 11.2 5 Oeste 12 Sudoeste 0 963.7 -- 66
2021-02-11 23:00:00 13.4 8 Sudoeste 19 Sudoeste 0 964 -- 56
2021-02-11 22:00:00 13.9 15 Sudoeste 23 Oeste 0 963.8 -- 53
2021-02-11 21:00:00 13.5 11 Sudoeste 22 Sudoeste 0 963.8 -- 57
2021-02-11 20:00:00 13.4 10 Oeste 17 Oeste 0 963.9 -- 60
2021-02-11 19:00:00 13.1 4 Sudoeste 17 Noroeste 0 963.5 -- 65
2021-02-11 18:00:00 16.6 10 Noroeste 22 Oeste 0 963 -- 52
2021-02-11 17:00:00 19 15 Oeste 26 Noroeste 0 962.8 -- 40
2021-02-11 16:00:00 18.9 19 Noroeste 34 Noroeste 0 962.9 -- 40
2021-02-11 15:00:00 18.5 17 Noroeste 30 Noroeste 0 962.8 -- 45
2021-02-11 14:00:00 18.1 21 Noroeste 30 Noroeste 0 963.1 -- 45
2021-02-11 13:00:00 17.1 12 Noroeste 31 Oeste 0 963.7 -- 48
2021-02-11 12:00:00 16.9 20 Oeste 32 Noroeste 0 964 -- 49
2021-02-11 11:00:00 14.9 9 Oeste 16 Oeste 0 963.9 -- 47
2021-02-11 10:00:00 11.9 9 Sudoeste 13 Sudoeste 0 963.8 -- 49
2021-02-11 09:00:00 7.4 6 Oeste 14 Sudoeste 0 963.8 -- 59
2021-02-11 08:00:00 6.6 4 Sur 13 Sudoeste 0 963.4 -- 60
2021-02-11 07:00:00 6.1 6 Sudoeste 18 Sudoeste 0 963.3 -- 65
2021-02-11 06:00:00 7.6 12 Sudoeste 22 Sudoeste 0 963 -- 59
2021-02-11 05:00:00 7.3 14 Sudoeste 18 Sudoeste 0 962.9 -- 62
2021-02-11 04:00:00 7 8 Sudoeste 20 Sudoeste 0 963.1 -- 65
2021-02-11 03:00:00 7.5 7 Sudoeste 18 Sudoeste 0 963.2 -- 64
2021-02-11 02:00:00 8.3 13 Sudoeste 20 Sudoeste 0 963 -- 57
2021-02-11 01:00:00 6 8 Sudoeste 17 Sudoeste 0 962.9 -- 66
2021-02-11 00:00:00 7.1 9 Sudoeste 18 Sudoeste 0 962.7 -- 60
2021-02-10 23:00:00 7.4 9 Sudoeste 23 Sudoeste 0 962.2 -- 58
2021-02-10 22:00:00 7.8 12 Sudoeste 19 Sudoeste 0 961.4 -- 58
2021-02-10 21:00:00 7.3 10 Oeste 13 Oeste 0 960.8 -- 60
2021-02-10 20:00:00 7.4 6 Noroeste 15 Oeste 0 960.4 -- 62
2021-02-10 19:00:00 10 10 Oeste 18 Noroeste 0 959.3 -- 52
2021-02-10 18:00:00 12.3 12 Oeste 33 Noroeste 0 958.6 -- 43
2021-02-10 17:00:00 12.5 20 Noroeste 36 Noroeste 0 957.8 -- 40
2021-02-10 16:00:00 12.7 21 Noroeste 41 Noroeste 0 957 -- 40
2021-02-10 15:00:00 12.2 26 Noroeste 42 Noroeste 0 956.2 -- 42
2021-02-10 14:00:00 12.4 27 Noroeste 53 Oeste 0 955.6 -- 47
2021-02-10 13:00:00 11.7 31 Noroeste 58 Noroeste 0 954.9 -- 48
2021-02-10 12:00:00 11.6 29 Oeste 58 Oeste 0 954.1 -- 51
2021-02-10 11:00:00 10.3 35 Oeste 62 Oeste 0 952.7 -- 59
2021-02-10 10:00:00 8.8 30 Oeste 58 Oeste 0 951.2 -- 66
2021-02-10 09:00:00 6.8 10 Sudoeste 22 Sudoeste 0 950.5 -- 84
2021-02-10 08:00:00 6 6 Sudoeste 23 Noroeste 0.8 949.2 -- 91
2021-02-10 07:00:00 6.8 9 Noroeste 13 Noroeste 1 948.7 -- 90
2021-02-10 06:00:00 7.4 9 Sudoeste 22 Sudoeste 0.6 948.4 -- 86
2021-02-10 05:00:00 6.2 5 Sudoeste 12 Sur 0 948.6 -- 88
2021-02-10 04:00:00 6 4 Oeste 13 Norte 0 948.9 -- 87
2021-02-10 03:00:00 7.4 4 Este 19 Sudoeste 0 948.6 -- 79
2021-02-10 02:00:00 8.1 14 Sudoeste 28 Sudoeste 0.2 949.8 -- 76
2021-02-10 01:00:00 6.8 4 Sudoeste 15 Noroeste 0.2 949.9 -- 88
2021-02-10 00:00:00 7.1 5 Nordeste 15 Norte 0 949.8 -- 79
2021-02-09 23:00:00 6.7 4 Sudoeste 9 Sudoeste 0 949.3 -- 71
2021-02-09 22:00:00 8.6 6 Norte 31 Sudoeste 0 948.6 -- 60
2021-02-09 21:00:00 9.8 15 Oeste 47 Oeste 0 947.8 -- 55
2021-02-09 20:00:00 11.2 30 Sudoeste 52 Sudoeste 0 947.5 -- 49
2021-02-09 19:00:00 11 21 Sudoeste 56 Oeste 0 947.1 -- 56
2021-02-09 18:00:00 14.2 27 Oeste 43 Sudoeste 0 947.8 -- 47
2021-02-09 17:00:00 15.5 16 Sudoeste 40 Sudoeste 0 946.2 -- 40
2021-02-09 16:00:00 15.6 23 Sudoeste 48 Sudoeste 0 946.5 -- 39
2021-02-09 15:00:00 16.5 18 Sudoeste 33 Sudoeste 0 947.1 -- 36
2021-02-09 14:00:00 14.6 13 Sur 30 Sur 0 948.3 -- 40
2021-02-09 13:00:00 13.6 9 Sur 31 Sur 0 949.7 -- 42
2021-02-09 12:00:00 12.9 13 Sur 25 Sur 0 950.5 -- 42
2021-02-09 11:00:00 11.6 9 Sur 19 Sur 0 950.8 -- 45
2021-02-09 10:00:00 9.1 4 Norte 15 Sudoeste 0 951.3 -- 59
2021-02-09 09:00:00 9.3 6 Oeste 19 Sudoeste 0 951.8 -- 55
2021-02-09 08:00:00 9 8 Sur 12 Oeste 0 952.2 -- 57
2021-02-09 07:00:00 8.7 6 Oeste 28 Sudoeste 0 952.4 -- 61
2021-02-09 06:00:00 8.6 10 Oeste 33 Sudoeste 0 951.9 -- 61
2021-02-09 05:00:00 8.7 12 Oeste 29 Oeste 0 951.5 -- 61
2021-02-09 04:00:00 8.2 14 Oeste 23 Oeste 0 951.8 -- 64
2021-02-09 03:00:00 8.6 11 Oeste 24 Oeste 0 952.2 -- 62
2021-02-09 02:00:00 8.6 13 Oeste 30 Oeste 0 952.1 -- 62
2021-02-09 01:00:00 8.6 13 Oeste 36 Oeste 0 952 -- 62
2021-02-09 00:00:00 9.2 22 Oeste 44 Oeste 0 951 -- 58
2021-02-08 23:00:00 8.9 14 Oeste 24 Oeste 0 950.6 -- 59
2021-02-08 22:00:00 9.4 14 Oeste 32 Oeste 0 950.1 -- 58
2021-02-08 21:00:00 9.5 8 Oeste 23 Oeste 0 949.1 -- 59
2021-02-08 20:00:00 7.1 4 Oeste 17 Oeste 0 948.5 -- 74
2021-02-08 19:00:00 9.6 9 Oeste 18 Sudoeste 0 947.6 -- 60
2021-02-08 18:00:00 11.4 6 Oeste 50 Oeste 0 947 -- 56
2021-02-08 17:00:00 11.1 22 Oeste 38 Oeste 0 946.4 -- 56
2021-02-08 16:00:00 9.9 25 Noroeste 52 Noroeste 0.2 946 -- 67
2021-02-08 15:00:00 12.6 22 Oeste 49 Oeste 0 945.3 -- 46
2021-02-08 14:00:00 13.5 23 Oeste 45 Oeste 0 946 -- 47
2021-02-08 13:00:00 12.5 24 Oeste 46 Oeste 0 946.6 -- 48
2021-02-08 12:00:00 9.4 16 Oeste 44 Sudoeste 0.2 947.1 -- 73
2021-02-08 11:00:00 9.7 24 Sudoeste 41 Sudoeste 0 946.5 -- 72
2021-02-08 10:00:00 8.7 22 Sudoeste 38 Sudoeste 1.6 946.3 -- 80
2021-02-08 09:00:00 6.8 4 Sudoeste 10 Oeste 0.6 946.5 -- 90
2021-02-08 08:00:00 7 4 Sudeste 8 Sudeste 0.4 946.7 -- 85
2021-02-08 07:00:00 7.4 2 Oeste 12 Oeste 0 946.9 -- 76
2021-02-08 06:00:00 7.2 3 Sudoeste 8 Sudoeste 0 947.1 -- 79
2021-02-08 05:00:00 7.3 4 Sur 8 Sudeste 0 947.7 -- 74
2021-02-08 04:00:00 7.1 2 Sudoeste 7 Sudoeste 0 947.9 -- 76
2021-02-08 03:00:00 8.2 4 Norte 9 Noroeste 0 948.6 -- 71
2021-02-08 02:00:00 8 2 Norte 17 Oeste 0 948.9 -- 70
2021-02-08 01:00:00 5.5 5 Oeste 10 Oeste 0 949.7 -- 80
2021-02-08 00:00:00 6.3 3 Oeste 5 Sudoeste 0 949.9 -- 73
2021-02-07 23:00:00 6.9 3 Sur 4 Sudeste 0 950.5 -- 62
2021-02-07 22:00:00 6.6 3 Sudeste 11 Noroeste 0 950.9 -- 63
2021-02-07 21:00:00 5.9 4 Oeste 9 Oeste 0 950.8 -- 66
2021-02-07 20:00:00 7 3 Sur 6 Sudeste 0 950.9 -- 59
2021-02-07 19:00:00 7.6 4 Noroeste 15 Oeste 0 950.6 -- 54
2021-02-07 18:00:00 9.8 10 Oeste 32 Oeste 0 950.4 -- 42
2021-02-07 17:00:00 11.1 12 Noroeste 30 Oeste 0 950.5 -- 38
2021-02-07 16:00:00 11.1 18 Oeste 36 Oeste 0 950.6 -- 36
2021-02-07 15:00:00 10.5 21 Oeste 34 Oeste 0 950.8 -- 36
2021-02-07 14:00:00 10.3 21 Noroeste 37 Noroeste 0 951.4 -- 40
2021-02-07 13:00:00 10.4 20 Noroeste 38 Oeste 0 951.7 -- 41
2021-02-07 12:00:00 9.2 21 Oeste 36 Oeste 0 952.2 -- 45
2021-02-07 11:00:00 8.2 25 Oeste 40 Oeste 0 952.5 -- 48
2021-02-07 10:00:00 7 18 Oeste 31 Oeste 0 952.1 -- 51
2021-02-07 09:00:00 5.3 15 Oeste 24 Oeste 0 952.1 -- 62
2021-02-07 08:00:00 4.7 15 Oeste 23 Oeste 0 951.8 -- 65
2021-02-07 07:00:00 5.3 10 Oeste 26 Oeste 0 951.7 -- 65
2021-02-07 06:00:00 5.9 15 Oeste 33 Oeste 0 951.8 -- 63
2021-02-07 05:00:00 6 18 Oeste 33 Oeste 0 952 -- 66
2021-02-07 04:00:00 6.2 19 Oeste 35 Oeste 0 951.9 -- 67
2021-02-07 03:00:00 6.4 17 Oeste 38 Noroeste 0 952.1 -- 72
2021-02-07 02:00:00 6.7 16 Oeste 35 Oeste 0 952 -- 74
2021-02-07 01:00:00 6.9 15 Oeste 28 Oeste 0 951.9 -- 76
2021-02-07 00:00:00 6.6 13 Oeste 25 Oeste 0 951.6 -- 79
2021-02-06 23:00:00 7.4 13 Oeste 29 Oeste 0 951.6 -- 77
2021-02-06 22:00:00 8.1 13 Oeste 25 Oeste 0 951.3 -- 80
2021-02-06 21:00:00 8.3 9 Oeste 16 Oeste 0 950.9 -- 84
2021-02-06 20:00:00 8.2 10 Oeste 31 Noroeste 0 950.5 -- 87
2021-02-06 19:00:00 8.6 21 Noroeste 35 Noroeste 0.2 949.7 -- 88
2021-02-06 18:00:00 9.4 6 Noroeste 36 Noroeste 0.6 948.6 -- 89
2021-02-06 17:00:00 12.3 3 Oeste 12 Nordeste 0.4 947.8 -- 83
2021-02-06 16:00:00 14.1 6 Este 16 Norte 0 946.9 -- 54
2021-02-06 15:00:00 14 12 Norte 25 Norte 0 946.8 -- 55
2021-02-06 14:00:00 14.7 7 Norte 17 Norte 0 947.2 -- 46
2021-02-06 13:00:00 15.2 6 Norte 13 Norte 0 947.8 -- 46
2021-02-06 12:00:00 14.3 9 Norte 16 Norte 0 948.3 -- 52
2021-02-06 11:00:00 13.3 8 Norte 15 Norte 0 948.4 -- 58
2021-02-06 10:00:00 13.2 3 Sur 10 Sudoeste 0 948.4 -- 62
2021-02-06 09:00:00 9.6 0 Calma 10 Sudoeste 0 948.1 -- 76
2021-02-06 08:00:00 7.3 4 Oeste 9 Sudeste 0 947.6 -- 86
2021-02-06 07:00:00 8.7 0 Calma 19 Noroeste 0 947.8 -- 78
2021-02-06 06:00:00 9.9 8 Sudoeste 18 Sudoeste 0 947.4 -- 72
2021-02-06 05:00:00 10.2 10 Sudoeste 23 Sudoeste 0 947.9 -- 74
2021-02-06 04:00:00 9.3 13 Sudoeste 18 Sudoeste 0 948.3 -- 80
2021-02-06 03:00:00 9 4 Oeste 13 Oeste 0 949.5 -- 85
2021-02-06 02:00:00 9 7 Norte 15 Oeste 0 949.3 -- 84
2021-02-06 01:00:00 9.3 9 Oeste 14 Oeste 0 950.7 -- 82
2021-02-06 00:00:00 8.8 2 Norte 9 Norte 0 950.2 -- 81
2021-02-05 23:00:00 9.8 5 Norte 18 Sudoeste 0 950.5 -- 72
2021-02-05 22:00:00 9.5 6 Noroeste 22 Sudoeste 0 950.8 -- 75
2021-02-05 21:00:00 11.3 5 Noroeste 36 Sur 0 950.9 -- 64
2021-02-05 20:00:00 11.6 18 Sur 37 Sudeste 0 950.8 -- 65
2021-02-05 19:00:00 12.6 18 Sudeste 35 Sur 0 950.8 -- 59
2021-02-05 18:00:00 13.2 14 Sudeste 43 Sudeste 0 950.6 -- 57
2021-02-05 17:00:00 14.3 20 Sur 42 Sudeste 0 950.1 -- 52
2021-02-05 16:00:00 15.6 23 Sudeste 46 Sudeste 0 950.3 -- 49
2021-02-05 15:00:00 16.5 16 Este 44 Sur 0 951.2 -- 47
2021-02-05 14:00:00 15.5 31 Sudeste 53 Sudeste 0 951.9 -- 47
2021-02-05 13:00:00 15.1 28 Sudeste 45 Sudeste 0 953.1 -- 47
2021-02-05 12:00:00 16.5 21 Sudeste 36 Sudeste 0 954 -- 40
2021-02-05 11:00:00 11 8 Norte 15 Norte 0 954.2 -- 81
2021-02-05 10:00:00 11.4 7 Nordeste 22 Sudeste 0 954.4 -- 73
2021-02-05 09:00:00 8.4 4 Noroeste 10 Oeste 0 954.8 -- 89
2021-02-05 08:00:00 7.7 3 Nordeste 8 Oeste 0 954.8 -- 90
2021-02-05 07:00:00 7.6 7 Oeste 9 Oeste 0 955.1 -- 89
2021-02-05 06:00:00 8.8 4 Sudeste 15 Sudoeste 0 955.5 -- 77
2021-02-05 05:00:00 9.4 10 Sudoeste 15 Sudoeste 0 955.9 -- 76
2021-02-05 04:00:00 7.2 7 Oeste 10 Oeste 0 956.2 -- 94
2021-02-05 03:00:00 7.1 3 Oeste 8 Oeste 0 957 -- 95
2021-02-05 02:00:00 8.1 3 Nordeste 11 Noroeste 0 957.4 -- 93
2021-02-05 01:00:00 8.4 3 Oeste 8 Noroeste 0 957.8 -- 90
2021-02-05 00:00:00 9.4 4 Sudoeste 11 Norte 0 957.7 -- 89
2021-02-04 23:00:00 9.7 5 Sur 8 Sudeste 0 957.2 -- 89
2021-02-04 22:00:00 9.8 3 Sudeste 8 Oeste 0 956.9 -- 87
2021-02-04 21:00:00 10 0 Calma 6 Oeste 0 956.3 -- 88
2021-02-04 20:00:00 11 3 Sur 9 Oeste 0 955.9 -- 85
2021-02-04 19:00:00 11.9 3 Oeste 11 Oeste 0 955.5 -- 80
2021-02-04 18:00:00 13.9 10 Noroeste 17 Noroeste 0 954.8 -- 69
2021-02-04 17:00:00 16.6 12 Noroeste 21 Noroeste 0 954.3 -- 57
2021-02-04 16:00:00 17.5 10 Norte 16 Nordeste 0 954.2 -- 55
2021-02-04 15:00:00 16.9 8 Este 15 Nordeste 0 955 -- 54
2021-02-04 14:00:00 15.7 6 Nordeste 13 Norte 0 956.2 -- 52
2021-02-04 13:00:00 13.6 7 Norte 10 Norte 0 957.4 -- 63
2021-02-04 12:00:00 13.2 4 Este 9 Este 0 958.1 -- 63
2021-02-04 11:00:00 12.1 3 Oeste 9 Sudoeste 0 958.8 -- 66
2021-02-04 10:00:00 11.5 4 Sur 13 Sudoeste 0 959 -- 68
2021-02-04 09:00:00 10.7 7 Sur 13 Sur 0 958.7 -- 69
2021-02-04 08:00:00 9.3 4 Sur 9 Sudoeste 0 958.4 -- 75
2021-02-04 07:00:00 9.8 8 Sudoeste 9 Oeste 0 958.6 -- 73
2021-02-04 06:00:00 8.6 0 Calma 10 Oeste 0 958.5 -- 79
2021-02-04 05:00:00 9.1 7 Oeste 10 Noroeste 0 958.5 -- 77
2021-02-04 04:00:00 10.1 2 Nordeste 8 Este 0 958.8 -- 68
2021-02-04 03:00:00 11.1 4 Sudeste 13 Sudeste 0 959.4 -- 64
2021-02-04 02:00:00 11.7 8 Sudoeste 15 Sur 0 960 -- 64
2021-02-04 01:00:00 11.8 3 Oeste 13 Sudoeste 0 959.8 -- 65
2021-02-04 00:00:00 12.5 10 Sur 15 Sudoeste 0 959.9 -- 61
2021-02-03 23:00:00 12.1 6 Sudoeste 12 Sudoeste 0 960 -- 66
2021-02-03 22:00:00 12.1 9 Sudoeste 15 Sudoeste 0 960.1 -- 65
2021-02-03 21:00:00 12.8 9 Sudoeste 12 Sudoeste 0 959.8 -- 62
2021-02-03 20:00:00 13 8 Sudoeste 10 Sudoeste 0 959.8 -- 62
2021-02-03 19:00:00 12.6 5 Sudoeste 8 Sudoeste 0 959.5 -- 64
2021-02-03 18:00:00 15.4 3 Sudeste 6 Norte 0 959.2 -- 53
2021-02-03 17:00:00 16.2 4 Norte 11 Norte 0 958.7 -- 48
2021-02-03 16:00:00 17.2 5 Nordeste 16 Norte 0 958.7 -- 44
2021-02-03 15:00:00 17 4 Nordeste 12 Nordeste 0 958.8 -- 43
2021-02-03 14:00:00 16.2 3 Sudeste 10 Este 0 959.3 -- 44
2021-02-03 13:00:00 15 6 Sudoeste 17 Sudoeste 0 959.9 -- 45
2021-02-03 12:00:00 12.8 14 Sudoeste 19 Sudoeste 0 960.5 -- 49
2021-02-03 11:00:00 10.3 12 Sudoeste 18 Sudoeste 0 960.5 -- 61
2021-02-03 10:00:00 8.3 12 Sudoeste 24 Sudoeste 0 960.2 -- 69
2021-02-03 09:00:00 6.8 13 Sudoeste 24 Sudoeste 0 959.6 -- 76
2021-02-03 08:00:00 7.1 19 Sudoeste 24 Sudoeste 0 959 -- 77
2021-02-03 07:00:00 7.7 18 Sudoeste 26 Sudoeste 0 958.8 -- 77
2021-02-03 06:00:00 8 16 Sudoeste 24 Sudoeste 0 958.8 -- 77
2021-02-03 05:00:00 8.1 15 Sudoeste 23 Sudoeste 0 959.1 -- 78
2021-02-03 04:00:00 7.9 15 Sudoeste 20 Sudoeste 0 959.3 -- 80
2021-02-03 03:00:00 7.7 12 Sudoeste 17 Sudoeste 0 959.9 -- 81
2021-02-03 02:00:00 8.9 12 Sudoeste 17 Sudoeste 0 959.9 -- 79
2021-02-03 01:00:00 9.2 10 Sudoeste 15 Sudoeste 0 960.4 -- 79
2021-02-03 00:00:00 9.3 9 Sudoeste 14 Sudoeste 0 960.2 -- 78
2021-02-02 23:00:00 10.3 8 Sudoeste 12 Sudoeste 0 960.4 -- 75
2021-02-02 22:00:00 10.5 9 Sudoeste 12 Sudoeste 0 960.3 -- 75
2021-02-02 21:00:00 10.8 2 Oeste 10 Sudoeste 0 960.5 -- 75
2021-02-02 20:00:00 9.7 4 Oeste 7 Oeste 0 960.5 -- 79
2021-02-02 19:00:00 12.2 0 Calma 9 Norte 0 960.1 -- 65
2021-02-02 18:00:00 17.1 4 Nordeste 17 Nordeste 0 959.6 -- 46
2021-02-02 17:00:00 18.8 10 Este 18 Nordeste 0 959.7 -- 41
2021-02-02 16:00:00 19.2 11 Norte 24 Noroeste 0 959.7 -- 35
2021-02-02 15:00:00 19 14 Noroeste 27 Noroeste 0 960.3 -- 37
2021-02-02 14:00:00 18.1 13 Oeste 24 Noroeste 0 961.3 -- 41
2021-02-02 13:00:00 17.4 15 Oeste 30 Noroeste 0 962.1 -- 44
2021-02-02 12:00:00 16.3 18 Noroeste 30 Oeste 0 962.9 -- 48
2021-02-02 11:00:00 15.4 18 Oeste 30 Noroeste 0 962.7 -- 51
2021-02-02 10:00:00 13.1 10 Sudoeste 23 Sudoeste 0 963.1 -- 65
2021-02-02 09:00:00 11.9 10 Sudoeste 18 Sudoeste 0 962.9 -- 68
2021-02-02 08:00:00 9 6 Sudoeste 16 Sudoeste 0 962 -- 77
2021-02-02 07:00:00 11.6 11 Sudoeste 20 Sudoeste 0 961.8 -- 63
2021-02-02 06:00:00 10.6 9 Oeste 19 Oeste 0 961.6 -- 66
2021-02-02 05:00:00 10.7 8 Oeste 17 Oeste 0 961.3 -- 64
2021-02-02 04:00:00 11.7 15 Oeste 32 Oeste 0 960.8 -- 59
2021-02-02 03:00:00 12.8 17 Oeste 39 Oeste 0 960.9 -- 54
2021-02-02 02:00:00 12.5 16 Oeste 38 Oeste 0 960.6 -- 55
2021-02-02 01:00:00 12.4 15 Oeste 35 Oeste 0 960.6 -- 55
2021-02-02 00:00:00 12.5 18 Sudoeste 34 Oeste 0 960.8 -- 54
2021-02-01 23:00:00 13 14 Oeste 35 Oeste 0 960.7 -- 53
2021-02-01 22:00:00 13.3 19 Oeste 33 Oeste 0 960.5 -- 52
2021-02-01 21:00:00 13.1 11 Oeste 27 Oeste 0 960.4 -- 54
2021-02-01 20:00:00 13.3 11 Oeste 25 Oeste 0 959.9 -- 56
2021-02-01 19:00:00 15 13 Oeste 30 Oeste 0 959.7 -- 49
2021-02-01 18:00:00 16.5 17 Oeste 35 Noroeste 0 958.6 -- 44
2021-02-01 17:00:00 16.8 18 Oeste 37 Oeste 0 957.9 -- 42
2021-02-01 16:00:00 16.8 25 Oeste 46 Oeste 0 957.6 -- 40
2021-02-01 15:00:00 17.3 28 Oeste 46 Noroeste 0 957.5 -- 36
2021-02-01 14:00:00 17.7 26 Oeste 48 Oeste 0 956.9 -- 33
2021-02-01 13:00:00 16.5 34 Oeste 62 Oeste 0 956.9 -- 36
2021-02-01 12:00:00 15.7 36 Oeste 56 Oeste 0 956.8 -- 39
2021-02-01 11:00:00 14.5 32 Oeste 53 Oeste 0 956.3 -- 43
2021-02-01 10:00:00 13.1 27 Oeste 60 Oeste 0 955.7 -- 47
2021-02-01 09:00:00 12.1 31 Oeste 61 Oeste 0 954.7 -- 50
2021-02-01 08:00:00 11.9 37 Oeste 67 Oeste 0 953.5 -- 49
2021-02-01 07:00:00 12.1 38 Oeste 71 Oeste 0 953.1 -- 49
2021-02-01 06:00:00 12.5 38 Oeste 70 Oeste 0 952.6 -- 48
2021-02-01 05:00:00 13.2 40 Oeste 67 Oeste 0 952.5 -- 45
2021-02-01 04:00:00 13.8 40 Oeste 75 Oeste 0 952.4 -- 44
2021-02-01 03:00:00 14.5 46 Oeste 78 Oeste 0 952 -- 41
2021-02-01 02:00:00 14.7 33 Oeste 69 Oeste 0 951.8 -- 40
2021-02-01 01:00:00 14.6 29 Oeste 56 Oeste 0 951.9 -- 43
2021-02-01 00:00:00 14.8 33 Oeste 63 Sudoeste 0 952 -- 48
2021-01-31 23:00:00 14.6 31 Sudoeste 57 Sudoeste 0 952.2 -- 51
2021-01-31 22:00:00 14.5 31 Oeste 50 Sudoeste 0 952.5 -- 53
2021-01-31 21:00:00 14 17 Sudoeste 37 Sudoeste 0 952.9 -- 55
2021-01-31 20:00:00 14.3 27 Oeste 53 Oeste 0 953.3 -- 56
2021-01-31 19:00:00 14.1 10 Noroeste 27 Oeste 0 953.4 -- 56
2021-01-31 18:00:00 14.6 14 Oeste 50 Oeste 0 953.3 -- 54
2021-01-31 17:00:00 16 21 Oeste 36 Oeste 0 953.4 -- 48
2021-01-31 16:00:00 16.4 18 Oeste 35 Oeste 0 953.7 -- 46
2021-01-31 15:00:00 14.7 15 Oeste 48 Oeste 0 954.1 -- 50
2021-01-31 14:00:00 14.3 26 Oeste 49 Oeste 0 954.9 -- 48
2021-01-31 13:00:00 13.2 29 Oeste 49 Oeste 0 955.6 -- 47
2021-01-31 12:00:00 11.9 34 Oeste 57 Oeste 0 956.5 -- 49
2021-01-31 11:00:00 12.2 33 Oeste 55 Oeste 0 956.5 -- 45
2021-01-31 10:00:00 10.8 31 Oeste 56 Oeste 0 956.4 -- 50
2021-01-31 09:00:00 9.7 34 Oeste 57 Oeste 0 955.8 -- 52
2021-01-31 08:00:00 9.6 27 Oeste 56 Oeste 0 955 -- 52
2021-01-31 07:00:00 9.7 29 Oeste 47 Oeste 0 954.3 -- 52
2021-01-31 06:00:00 9.9 32 Oeste 55 Oeste 0 953.7 -- 51
2021-01-31 05:00:00 9.9 34 Oeste 57 Sudoeste 0 953.4 -- 50
2021-01-31 04:00:00 10.1 32 Oeste 56 Oeste 0 953.5 -- 50
2021-01-31 03:00:00 9.9 34 Oeste 61 Oeste 0 953.7 -- 50
2021-01-31 02:00:00 10.1 35 Oeste 64 Oeste 0 953.8 -- 48
2021-01-31 01:00:00 10 30 Oeste 51 Oeste 0 954.1 -- 50
2021-01-31 00:00:00 10.3 25 Oeste 53 Oeste 0 954 -- 50
2021-01-30 23:00:00 10.8 25 Oeste 47 Oeste 0 954.2 -- 50
2021-01-30 22:00:00 11.1 29 Oeste 50 Noroeste 0 953.9 -- 47
2021-01-30 21:00:00 10.6 13 Oeste 41 Oeste 0 953.7 -- 54
2021-01-30 20:00:00 11.5 24 Oeste 50 Oeste 0 953.7 -- 46
2021-01-30 19:00:00 11.5 25 Oeste 62 Oeste 0 953.3 -- 47
2021-01-30 18:00:00 12.6 32 Oeste 61 Oeste 0 952.8 -- 38
2021-01-30 17:00:00 13.7 33 Oeste 57 Oeste 0 952.9 -- 34
2021-01-30 16:00:00 13.6 28 Oeste 58 Oeste 0 953.1 -- 41
2021-01-30 15:00:00 13.9 31 Oeste 64 Oeste 0 953.2 -- 39
2021-01-30 14:00:00 13.5 30 Oeste 55 Noroeste 0 954.1 -- 43
2021-01-30 13:00:00 14.4 26 Oeste 42 Noroeste 0 954.4 -- 43
2021-01-30 12:00:00 14.4 31 Oeste 50 Oeste 0 955.4 -- 48
2021-01-30 11:00:00 13.5 28 Oeste 45 Oeste 0 955.5 -- 53
2021-01-30 10:00:00 12.3 14 Oeste 32 Sudoeste 0 955.5 -- 70
2021-01-30 09:00:00 11.6 13 Sudoeste 24 Sudoeste 0 956.3 -- 76
2021-01-30 08:00:00 9.8 8 Sur 14 Oeste 0 956.5 -- 78
2021-01-30 07:00:00 8.9 9 Oeste 15 Sudoeste 0 956.7 -- 80
2021-01-30 06:00:00 9.4 4 Sur 9 Sur 0 957.5 -- 76
2021-01-30 05:00:00 9.7 6 Oeste 19 Sudoeste 0 957.7 -- 75
2021-01-30 04:00:00 10.7 9 Sudoeste 19 Sudoeste 0 957.5 -- 70
2021-01-30 03:00:00 10.3 8 Sudoeste 22 Sudoeste 0 958.7 -- 72
2021-01-30 02:00:00 9.2 8 Sudoeste 15 Sudoeste 0 960 -- 79
2021-01-30 01:00:00 9.2 2 Sur 12 Sudoeste 0 961.3 -- 84
2021-01-30 00:00:00 10.5 10 Sudoeste 16 Sudoeste 0 962 -- 83
2021-01-29 23:00:00 10.2 5 Oeste 12 Sudoeste 0 962.3 -- 83
2021-01-29 22:00:00 11.1 6 Oeste 15 Oeste 0 963 -- 80
2021-01-29 21:00:00 12 3 Sudeste 13 Sudoeste 0 963.2 -- 76
2021-01-29 20:00:00 11.6 3 Sudoeste 10 Sudoeste 0 963.3 -- 77
2021-01-29 19:00:00 13.9 8 Sudoeste 11 Oeste 0 963.1 -- 65
2021-01-29 18:00:00 16.4 6 Norte 20 Noroeste 0 963 -- 55
2021-01-29 17:00:00 18.9 13 Noroeste 29 Noroeste 0 962.9 -- 45
2021-01-29 16:00:00 19.3 17 Noroeste 36 Noroeste 0 963.5 -- 42
2021-01-29 15:00:00 19 24 Noroeste 41 Noroeste 0 963.7 -- 43
2021-01-29 14:00:00 18.9 26 Noroeste 43 Noroeste 0 964.2 -- 43
2021-01-29 13:00:00 19 26 Oeste 41 Oeste 0 964.7 -- 44
2021-01-29 12:00:00 17.6 18 Oeste 33 Oeste 0 965.3 -- 48
2021-01-29 11:00:00 16.4 15 Oeste 30 Oeste 0 965.5 -- 53
2021-01-29 10:00:00 14.6 11 Noroeste 38 Oeste 0 966 -- 55
2021-01-29 09:00:00 13.6 19 Sudoeste 35 Sudoeste 0 965.2 -- 59
2021-01-29 08:00:00 13.5 10 Oeste 40 Sudoeste 0 965.2 -- 56
2021-01-29 07:00:00 14.1 23 Sudoeste 37 Sudoeste 0 964.9 -- 55
2021-01-29 06:00:00 14.5 19 Sudoeste 28 Oeste 0 965.3 -- 55
2021-01-29 05:00:00 12.3 10 Sudoeste 17 Sudoeste 0 965.8 -- 64
2021-01-29 04:00:00 10.8 5 Oeste 15 Sudoeste 0 965.7 -- 73
2021-01-29 03:00:00 11.3 8 Sudoeste 14 Sudoeste 0 965.7 -- 71
2021-01-29 02:00:00 11.1 4 Oeste 16 Sudoeste 0 965.9 -- 71
2021-01-29 01:00:00 14.2 16 Sudoeste 21 Sudoeste 0 966.1 -- 58
2021-01-29 00:00:00 12.5 9 Oeste 17 Sudoeste 0 966.1 -- 67
2021-01-28 23:00:00 15.1 9 Oeste 22 Sudoeste 0 966.2 -- 56
2021-01-28 22:00:00 16.5 12 Sudoeste 21 Sudoeste 0 965.9 -- 53
2021-01-28 21:00:00 14.9 6 Sudoeste 13 Sur 0 966.2 -- 61
2021-01-28 20:00:00 13.8 2 Sudeste 12 Oeste 0 966.4 -- 69
2021-01-28 19:00:00 14.7 5 Sudoeste 9 Sudoeste 0 966.1 -- 66
2021-01-28 18:00:00 18.6 9 Oeste 28 Noroeste 0 965.5 -- 51
2021-01-28 17:00:00 21 13 Noroeste 29 Noroeste 0 965.7 -- 44
2021-01-28 16:00:00 22.3 17 Noroeste 30 Noroeste 0 965.9 -- 39
2021-01-28 15:00:00 22.4 18 Noroeste 35 Noroeste 0 966.1 -- 38
2021-01-28 14:00:00 21.1 8 Este 17 Este 0 967.1 -- 47
2021-01-28 13:00:00 19.9 4 Nordeste 11 Noroeste 0 968 -- 48
2021-01-28 12:00:00 18.2 4 Norte 12 Norte 0 968.8 -- 50
2021-01-28 11:00:00 17.7 3 Este 7 Sur 0 968.6 -- 53
2021-01-28 10:00:00 14.8 3 Sur 14 Sudoeste 0 968.2 -- 65
2021-01-28 09:00:00 11.5 10 Sudoeste 15 Sur 0 967.7 -- 76
2021-01-28 08:00:00 10.2 11 Sudoeste 15 Sudoeste 0 967.7 -- 81
2021-01-28 07:00:00 11.3 10 Sudoeste 15 Sudoeste 0 967.8 -- 76
2021-01-28 06:00:00 11.6 13 Sudoeste 16 Sudoeste 0 968 -- 75
2021-01-28 05:00:00 12.3 10 Sudoeste 14 Sudoeste 0 968.8 -- 72
2021-01-28 04:00:00 12 10 Sudoeste 13 Sudoeste 0 969.1 -- 77
2021-01-28 03:00:00 10.9 8 Oeste 12 Oeste 0 969.1 -- 78
2021-01-28 02:00:00 11.7 6 Sudoeste 14 Sudoeste 0 969.2 -- 76
2021-01-28 01:00:00 13.2 11 Sudoeste 18 Sudoeste 0 969.4 -- 71
2021-01-28 00:00:00 12.4 9 Sudoeste 27 Oeste 0 969.6 -- 77